Time;durP1;ratioP1;P1;durP2;ratioP2;P2;SDS_P1;SDS_P2;PMS_P1;PMS_P2;Temp;Humidity;BMP_temperature;BMP_pressure;BME280_temperature;BME280_humidity;BME280_pressure;Samples;Min_cycle;Max_cycle;Signal;HPM_P1;HPM_P2
2024/01/18 00:00:10;;;;;;;2.80;2.20;;;1.10;99.90;;;1.74;100.00;95434.09;5039269;28;20536;-81
2024/01/18 00:02:40;;;;;;;2.40;1.70;;;1.10;99.90;;;1.75;100.00;95432.31;5039513;28;20541;-81
2024/01/18 00:05:10;;;;;;;2.40;1.80;;;1.10;99.90;;;1.78;100.00;95429.34;5041188;28;20467;-82
2024/01/18 00:07:39;;;;;;;2.67;2.13;;;1.10;99.90;;;1.81;100.00;95432.34;5039709;28;20965;-81
2024/01/18 00:10:08;;;;;;;2.23;1.83;;;1.20;99.90;;;1.83;100.00;95439.88;5037794;28;20472;-81
2024/01/18 00:12:38;;;;;;;3.93;2.40;;;1.20;99.90;;;1.80;100.00;95432.53;5038661;28;20461;-81
2024/01/18 00:15:08;;;;;;;2.27;2.07;;;1.20;99.90;;;1.75;100.00;95432.31;5039754;28;20838;-81
2024/01/18 00:17:37;;;;;;;3.13;2.37;;;1.10;99.90;;;1.76;100.00;95437.28;5039293;28;20797;-81
2024/01/18 00:20:09;;;;;;;2.10;1.83;;;1.10;99.90;;;1.76;100.00;95442.44;5042177;28;20900;-81
2024/01/18 00:22:38;;;;;;;2.67;2.47;;;1.10;99.90;;;1.77;100.00;95446.59;5040573;28;20983;-81
2024/01/18 00:25:08;;;;;;;2.37;2.17;;;1.10;99.90;;;1.73;100.00;95444.63;5039373;28;20489;-81
2024/01/18 00:27:36;;;;;;;2.03;1.93;;;1.10;99.90;;;1.73;100.00;95435.13;5040317;28;20458;-80
2024/01/18 00:30:06;;;;;;;4.60;2.50;;;1.10;99.90;;;1.76;100.00;95436.50;5038816;28;20816;-80
2024/01/18 00:32:35;;;;;;;2.50;2.30;;;1.10;99.90;;;1.77;100.00;95440.66;5038268;28;20461;-81
2024/01/18 00:35:04;;;;;;;3.47;2.33;;;1.10;99.90;;;1.81;100.00;95436.69;5040282;28;20501;-81
2024/01/18 00:37:35;;;;;;;1.87;1.60;;;1.20;99.90;;;1.81;100.00;95444.41;5039769;28;20467;-81
2024/01/18 00:40:04;;;;;;;2.40;2.17;;;1.20;99.90;;;1.81;100.00;95436.69;5040798;28;20457;-80
2024/01/18 00:42:33;;;;;;;2.23;2.00;;;1.30;99.90;;;1.80;100.00;95441.06;5040924;28;20584;-81
2024/01/18 00:45:02;;;;;;;1.90;1.70;;;1.20;99.90;;;1.76;100.00;95449.38;5040325;28;20491;-81
2024/01/18 00:47:30;;;;;;;1.80;1.70;;;1.20;99.90;;;1.72;100.00;95443.03;5041252;28;20492;-81
2024/01/18 00:49:59;;;;;;;2.03;1.80;;;1.10;99.90;;;1.75;100.00;95453.72;5038653;28;20480;-80
2024/01/18 00:52:27;;;;;;;2.40;2.20;;;1.10;99.90;;;1.77;100.00;95456.13;5039242;28;21040;-81
2024/01/18 00:54:58;;;;;;;2.43;2.20;;;1.10;99.90;;;1.74;100.00;95449.56;5038584;28;20486;-81
2024/01/18 00:57:26;;;;;;;2.60;2.13;;;1.10;99.90;;;1.74;100.00;95451.34;5038582;28;20454;-80
2024/01/18 00:59:55;;;;;;;2.20;1.80;;;1.10;99.90;;;1.74;100.00;95457.28;5037545;28;20495;-81
2024/01/18 01:02:24;;;;;;;2.43;2.23;;;1.10;99.90;;;1.75;100.00;95450.34;5032937;28;20485;-81
2024/01/18 01:04:52;;;;;;;2.93;2.10;;;1.10;99.90;;;1.75;100.00;95455.50;5037889;28;20951;-81
2024/01/18 01:07:21;;;;;;;2.53;2.27;;;1.10;99.90;;;1.75;100.00;95456.31;5037296;28;20482;-80
2024/01/18 01:09:49;;;;;;;2.93;2.47;;;1.10;99.90;;;1.77;100.00;95450.97;5040721;28;21069;-81
2024/01/18 01:12:19;;;;;;;3.20;2.50;;;1.10;99.90;;;1.77;100.00;95444.00;5037622;28;20477;-81
2024/01/18 01:14:48;;;;;;;2.80;2.53;;;1.00;99.90;;;1.77;100.00;95462.03;5038829;28;20500;-81
2024/01/18 01:17:17;;;;;;;3.00;2.70;;;1.00;99.90;;;1.73;100.00;95468.59;5038073;28;20488;-81
2024/01/18 01:19:45;;;;;;;3.30;3.00;;;1.00;99.90;;;1.73;100.00;95473.75;5037679;28;20976;-81
2024/01/18 01:22:14;;;;;;;2.97;2.63;;;1.10;99.90;;;1.74;100.00;95475.31;5037828;28;21028;-81
2024/01/18 01:24:42;;;;;;;2.53;2.33;;;1.00;99.90;;;1.76;100.00;95478.50;5036388;28;20473;-80
2024/01/18 01:27:11;;;;;;;3.33;2.87;;;1.10;99.90;;;1.75;100.00;95474.34;5036446;28;20441;-81
2024/01/18 01:29:41;;;;;;;3.33;3.03;;;1.10;99.90;;;1.78;100.00;95488.59;5037015;28;20495;-81
2024/01/18 01:32:09;;;;;;;3.67;3.23;;;1.10;99.90;;;1.78;100.00;95489.41;5036234;28;21113;-81
2024/01/18 01:34:38;;;;;;;4.50;3.33;;;1.00;99.90;;;1.81;100.00;95491.56;5037499;28;20490;-81
2024/01/18 01:37:06;;;;;;;2.53;2.33;;;1.10;99.90;;;1.77;100.00;95490.38;5038863;28;20472;-80
2024/01/18 01:39:35;;;;;;;3.30;3.00;;;1.10;99.90;;;1.83;100.00;95488.81;5038900;28;20493;-81
2024/01/18 01:42:04;;;;;;;4.57;3.00;;;1.20;99.90;;;1.83;100.00;95483.66;5038907;28;20978;-81
2024/01/18 01:44:33;;;;;;;4.60;2.90;;;1.20;99.90;;;1.79;100.00;95482.47;5039415;28;20547;-81
2024/01/18 01:47:03;;;;;;;2.70;2.43;;;1.20;99.90;;;1.74;100.00;95483.03;5042825;28;20523;-81
2024/01/18 01:49:32;;;;;;;3.10;2.70;;;1.20;99.90;;;1.79;100.00;95491.00;5039428;28;20829;-81
2024/01/18 01:52:00;;;;;;;2.90;2.70;;;1.20;99.90;;;1.73;100.00;95499.50;5037934;28;20459;-81
2024/01/18 01:54:30;;;;;;;3.50;3.20;;;1.20;99.90;;;1.72;100.00;95499.69;5040983;28;20516;-80
2024/01/18 01:57:04;;;;;;;4.17;3.43;;;1.10;99.90;;;1.73;100.00;95496.13;5038468;28;20538;-81
2024/01/18 01:59:33;;;;;;;4.03;3.33;;;1.00;99.90;;;1.69;100.00;95506.03;5041779;28;20464;-81
2024/01/18 02:02:04;;;;;;;4.00;3.43;;;1.00;99.90;;;1.71;100.00;95500.66;5036433;28;20830;-81
2024/01/18 02:04:32;;;;;;;4.13;3.33;;;1.10;99.90;;;1.73;100.00;95494.34;5039263;28;20462;-81
2024/01/18 02:07:01;;;;;;;4.67;3.37;;;1.10;99.90;;;1.70;100.00;95499.09;5035526;28;20466;-81
2024/01/18 02:09:30;;;;;;;4.80;3.67;;;1.10;99.90;;;1.71;100.00;95503.25;5038575;28;20459;-81
2024/01/18 02:12:01;;;;;;;5.00;3.60;;;1.10;99.90;;;1.69;100.00;95510.38;5034985;28;20511;-82
2024/01/18 02:14:31;;;;;;;4.67;3.53;;;1.10;99.90;;;1.63;100.00;95518.91;5036688;28;20464;-81
2024/01/18 02:17:00;;;;;;;4.43;4.03;;;1.00;99.90;;;1.60;100.00;95527.00;5036804;28;21833;-81
2024/01/18 02:19:30;;;;;;;4.67;3.70;;;1.00;99.90;;;1.57;100.00;95522.22;5034962;28;20493;-81
2024/01/18 02:22:00;;;;;;;5.00;3.90;;;0.90;99.90;;;1.61;100.00;95523.44;5035195;28;20553;-81
2024/01/18 02:24:36;;;;;;;5.30;4.20;;;1.00;99.90;;;1.60;100.00;95519.28;5038548;28;23006;-81
2024/01/18 02:27:07;;;;;;;6.80;4.53;;;1.00;99.90;;;1.56;100.00;95521.44;5038538;28;21121;-81
2024/01/18 02:29:36;;;;;;;6.43;4.80;;;1.00;99.90;;;1.56;100.00;95520.66;5036403;28;20465;-81
2024/01/18 02:32:05;;;;;;;4.33;3.63;;;0.90;99.90;;;1.55;100.00;95508.75;5035421;28;20480;-81
2024/01/18 02:34:38;;;;;;;5.20;3.73;;;1.00;99.90;;;1.53;100.00;95502.00;5036775;28;20995;-81
2024/01/18 02:37:08;;;;;;;5.90;4.17;;;1.00;99.90;;;1.56;100.00;95512.94;5035716;28;20528;-82
2024/01/18 02:39:37;;;;;;;5.43;3.77;;;1.00;99.90;;;1.49;100.00;95505.97;5039953;28;20467;-81
2024/01/18 02:42:07;;;;;;;5.83;3.90;;;0.90;99.90;;;1.49;100.00;95500.81;5039115;28;20481;-81
2024/01/18 02:44:38;;;;;;;3.63;3.30;;;0.90;99.90;;;1.50;100.00;95507.56;5038086;28;21029;-82
2024/01/18 02:47:06;;;;;;;4.27;3.40;;;1.00;99.90;;;1.47;100.00;95505.38;5036865;28;20471;-82
2024/01/18 02:49:38;;;;;;;4.87;3.60;;;1.00;99.90;;;1.46;100.00;95508.13;5036890;28;20461;-82
2024/01/18 02:52:07;;;;;;;5.40;4.03;;;0.90;99.90;;;1.50;100.00;95512.69;5037927;28;20470;-81
2024/01/18 02:54:36;;;;;;;5.40;4.10;;;1.00;99.90;;;1.50;100.00;95507.56;5036335;28;20467;-81
2024/01/18 02:57:06;;;;;;;5.17;4.00;;;0.90;99.90;;;1.42;100.00;95510.28;5036932;28;20496;-81
2024/01/18 02:59:34;;;;;;;4.03;3.30;;;0.90;99.90;;;1.36;100.00;95505.91;5036156;28;20472;-81
2024/01/18 03:02:03;;;;;;;6.40;3.70;;;0.80;99.90;;;1.39;100.00;95497.00;5036868;28;21007;-81
2024/01/18 03:04:32;;;;;;;5.03;3.83;;;0.80;99.90;;;1.40;100.00;95509.69;5039508;28;20457;-81
2024/01/18 03:07:00;;;;;;;5.03;4.00;;;0.80;99.90;;;1.32;100.00;95516.81;5040340;28;20956;-81
2024/01/18 03:09:29;;;;;;;4.80;4.30;;;0.70;99.90;;;1.33;100.00;95511.44;5037278;28;20465;-81
2024/01/18 03:11:57;;;;;;;4.47;4.00;;;0.80;99.90;;;1.40;100.00;95511.47;5036225;28;20548;-81
2024/01/18 03:14:28;;;;;;;5.30;4.50;;;0.90;99.90;;;1.42;100.00;95512.88;5037282;28;20469;-81
2024/01/18 03:16:56;;;;;;;4.00;3.60;;;0.80;99.90;;;1.43;100.00;95506.72;5036073;28;20505;-81
2024/01/18 03:19:25;;;;;;;5.37;4.33;;;0.80;99.90;;;1.46;100.00;95510.69;5035075;28;21020;-82
2024/01/18 03:21:53;;;;;;;5.90;4.37;;;1.00;99.90;;;1.36;100.00;95505.91;5035974;28;20472;-81
2024/01/18 03:24:22;;;;;;;6.00;3.80;;;0.80;99.90;;;1.38;100.00;95511.69;5038922;28;20467;-81
2024/01/18 03:26:51;;;;;;;6.90;4.10;;;0.80;99.90;;;1.36;100.00;95505.13;5035658;28;20866;-82
2024/01/18 03:29:19;;;;;;;4.83;3.53;;;0.80;99.90;;;1.34;100.00;95497.59;5036633;28;20468;-81
2024/01/18 03:31:49;;;;;;;3.97;3.60;;;0.80;99.90;;;1.40;100.00;95496.03;5036035;28;20822;-82
2024/01/18 03:34:18;;;;;;;5.20;4.03;;;0.90;99.90;;;1.34;100.00;95497.59;5037220;28;20534;-82
2024/01/18 03:36:46;;;;;;;3.50;3.17;;;0.70;99.90;;;1.37;100.00;95496.41;5039761;28;20571;-81
2024/01/18 03:39:15;;;;;;;4.60;3.17;;;0.80;99.90;;;1.36;100.00;95510.28;5040360;28;20544;-82
2024/01/18 03:41:43;;;;;;;3.33;3.03;;;0.80;99.90;;;1.36;100.00;95521.34;5039265;28;20963;-82
2024/01/18 03:44:12;;;;;;;3.00;2.80;;;0.80;99.90;;;1.32;100.00;95525.31;5038383;28;20496;-81
2024/01/18 03:46:40;;;;;;;3.60;3.10;;;0.70;99.90;;;1.33;100.00;95532.03;5039951;28;20896;-82
2024/01/18 03:49:10;;;;;;;3.40;3.00;;;0.70;99.90;;;1.37;100.00;95538.41;5040821;28;20464;-82
2024/01/18 03:51:39;;;;;;;3.20;2.60;;;0.80;99.90;;;1.38;100.00;95550.28;5042820;28;20475;-81
2024/01/18 03:54:07;;;;;;;3.50;3.17;;;0.80;99.90;;;1.33;100.00;95556.97;5041610;28;20464;-82
2024/01/18 03:56:36;;;;;;;2.60;2.37;;;0.70;99.90;;;1.36;100.00;95565.13;5037220;28;21230;-82
2024/01/18 03:59:04;;;;;;;3.20;2.33;;;0.80;99.90;;;1.26;100.00;95554.38;5042024;28;20637;-81
2024/01/18 04:01:33;;;;;;;4.53;2.90;;;0.70;99.90;;;1.17;100.00;95552.97;5039807;28;20463;-81
2024/01/18 04:04:03;;;;;;;1.93;1.83;;;0.60;99.90;;;1.14;100.00;95548.19;5041846;28;20481;-82
2024/01/18 04:06:33;;;;;;;3.20;2.10;;;0.60;99.90;;;1.08;100.00;95533.50;5039215;28;20847;-82
2024/01/18 04:09:02;;;;;;;2.67;2.47;;;0.50;99.90;;;1.09;100.00;95550.53;5037789;28;20715;-81
2024/01/18 04:11:31;;;;;;;4.97;3.23;;;0.60;99.90;;;1.07;100.00;95552.50;5036956;28;20471;-75
2024/01/18 04:13:59;;;;;;;3.57;2.67;;;0.60;99.90;;;1.02;100.00;95560.78;5037570;28;20836;-81
2024/01/18 04:16:29;;;;;;;2.50;2.30;;;0.60;99.90;;;1.07;100.00;95557.66;5037355;28;20535;-81
2024/01/18 04:18:58;;;;;;;2.87;2.50;;;0.60;99.90;;;1.01;100.00;95564.34;5038984;28;21306;-81
2024/01/18 04:21:26;;;;;;;3.83;2.30;;;0.50;99.90;;;1.04;100.00;95563.19;5039770;28;20463;-81
2024/01/18 04:23:57;;;;;;;3.73;2.50;;;0.60;99.90;;;0.96;100.00;95589.84;5040032;28;21024;-80
2024/01/18 04:26:27;;;;;;;7.33;5.00;;;0.50;99.90;;;0.89;100.00;95585.66;5038933;28;20492;-78
2024/01/18 04:28:56;;;;;;;22.13;8.50;;;0.50;99.90;;;0.85;100.00;95589.56;5040769;28;20957;-81
2024/01/18 04:31:24;;;;;;;4.37;3.23;;;0.40;99.90;;;0.77;100.00;95582.78;5035992;28;20475;-80
2024/01/18 04:33:54;;;;;;;5.17;2.90;;;0.50;99.90;;;0.80;100.00;95579.84;5038151;28;20461;-80
2024/01/18 04:36:23;;;;;;;5.40;3.33;;;0.40;99.90;;;0.80;100.00;95586.78;5038981;28;20482;-80
2024/01/18 04:38:51;;;;;;;3.30;2.63;;;0.40;99.90;;;0.79;100.00;95595.47;5039357;28;20486;-80
2024/01/18 04:41:21;;;;;;;4.13;3.43;;;0.40;99.90;;;0.74;100.00;95590.06;5040296;28;20464;-80
2024/01/18 04:43:50;;;;;;;5.13;3.47;;;0.20;99.90;;;0.71;100.00;95593.81;5040530;28;20470;-79
2024/01/18 04:46:19;;;;;;;7.00;5.70;;;0.20;99.90;;;0.72;100.00;95594.63;5032690;28;20739;-79
2024/01/18 04:48:48;;;;;;;4.00;3.57;;;0.20;99.90;;;0.74;100.00;95595.22;5035537;28;20965;-80
2024/01/18 04:51:16;;;;;;;5.43;2.80;;;0.30;99.90;;;0.64;100.00;95594.75;5038643;28;20561;-80
2024/01/18 04:53:45;;;;;;;14.43;6.70;;;0.20;99.90;;;0.64;100.00;95597.31;5040470;28;20464;-78
2024/01/18 04:56:14;;;;;;;6.87;4.83;;;0.10;99.90;;;0.70;100.00;95597.38;5036986;28;20460;-80
2024/01/18 04:58:44;;;;;;;4.80;3.90;;;0.20;99.90;;;0.72;100.00;95605.72;5036293;28;20496;-79
2024/01/18 05:01:12;;;;;;;4.97;3.60;;;0.20;99.90;;;0.66;100.00;95596.16;5039120;28;20461;-80
2024/01/18 05:03:41;;;;;;;4.30;3.27;;;0.20;99.90;;;0.58;100.00;95603.22;5039376;28;20542;-81
2024/01/18 05:06:10;;;;;;;6.47;4.60;;;0.10;99.90;;;0.59;100.00;95610.72;5040082;28;20824;-81
2024/01/18 05:08:39;;;;;;;5.87;3.50;;;0.20;99.90;;;0.60;100.00;95603.81;5039984;28;20460;-81
2024/01/18 05:11:08;;;;;;;5.60;3.17;;;0.00;99.90;;;0.58;100.00;95608.34;5038018;28;20462;-81
2024/01/18 05:13:36;;;;;;;3.10;2.70;;;0.00;99.90;;;0.56;100.00;95611.09;5037874;28;20852;-81
2024/01/18 05:16:07;;;;;;;4.20;3.70;;;0.10;99.90;;;0.56;100.00;95610.28;5037517;28;20493;-79
2024/01/18 05:18:36;;;;;;;4.30;3.53;;;0.00;99.90;;;0.55;100.00;95599.25;5040112;28;20484;-80
2024/01/18 05:21:05;;;;;;;5.27;3.47;;;0.00;99.90;;;0.49;100.00;95605.91;5039940;28;20521;-80
2024/01/18 05:23:33;;;;;;;4.10;3.70;;;0.00;99.90;;;0.48;100.00;95604.34;5037187;28;20474;-80
2024/01/18 05:26:02;;;;;;;3.83;3.13;;;-0.10;99.90;;;0.38;100.00;95611.53;5036314;28;20961;-80
2024/01/18 05:28:30;;;;;;;4.90;3.43;;;-0.20;99.90;;;0.45;100.00;95614.97;5036961;28;20471;-79
2024/01/18 05:30:59;;;;;;;42.37;19.47;;;-0.10;99.90;;;0.46;100.00;95626.84;5038128;28;21066;-85
2024/01/18 05:33:29;;;;;;;9.80;4.40;;;-0.10;99.90;;;0.47;100.00;95635.34;5035369;28;20463;-80
2024/01/18 05:35:58;;;;;;;3.70;3.40;;;-0.10;99.90;;;0.39;100.00;95646.53;5035686;28;20473;-79
2024/01/18 05:38:27;;;;;;;7.43;3.30;;;-0.10;99.90;;;0.43;100.00;95632.34;5039324;28;20512;-75
2024/01/18 05:40:59;;;;;;;4.77;3.50;;;-0.10;99.90;;;0.42;100.00;95645.38;5041945;28;20446;-74
2024/01/18 05:43:28;;;;;;;4.40;3.37;;;0.00;99.90;;;0.39;100.00;95649.13;5042369;28;21108;-74
2024/01/18 05:45:56;;;;;;;4.63;3.23;;;-0.10;99.90;;;0.37;100.00;95645.13;5041998;28;20469;-75
2024/01/18 05:48:25;;;;;;;3.67;3.20;;;-0.10;99.90;;;0.31;100.00;95649.22;5041183;28;20461;-75
2024/01/18 05:50:55;;;;;;;4.57;3.20;;;-0.30;99.90;;;0.32;100.00;95648.25;5042116;28;20542;-75
2024/01/18 05:53:24;;;;;;;4.27;3.80;;;-0.30;99.90;;;0.34;100.00;95656.59;5041748;28;20475;-75
2024/01/18 05:55:52;;;;;;;4.80;3.50;;;-0.10;99.90;;;0.30;100.00;95657.94;5043942;28;20466;-75
2024/01/18 05:58:21;;;;;;;4.87;3.40;;;-0.20;99.90;;;0.30;100.00;95657.13;5042737;28;20504;-75
2024/01/18 06:00:49;;;;;;;6.30;4.00;;;-0.20;99.90;;;0.20;100.00;95651.50;5040619;28;21275;-75
2024/01/18 06:03:18;;;;;;;5.20;3.30;;;-0.30;99.90;;;0.20;100.00;95654.88;5040448;28;20836;-74
2024/01/18 06:05:47;;;;;;;5.07;4.03;;;-0.30;99.90;;;0.09;100.00;95655.31;5042242;28;20993;-74
2024/01/18 06:08:17;;;;;;;5.50;4.20;;;-0.40;99.90;;;0.12;100.00;95665.25;5041457;28;21037;-74
2024/01/18 06:10:45;;;;;;;6.90;4.50;;;-0.40;99.90;;;0.17;100.00;95665.50;5039932;28;20512;-74
2024/01/18 06:13:14;;;;;;;4.83;3.60;;;-0.30;99.90;;;0.21;100.00;95671.06;5040779;28;20602;-74
2024/01/18 06:15:42;;;;;;;4.40;3.63;;;-0.30;99.90;;;0.12;100.00;95662.66;5041634;28;20475;-75
2024/01/18 06:18:11;;;;;;;4.27;3.57;;;-0.40;99.90;;;0.18;100.00;95676.56;5042677;28;20501;-75
2024/01/18 06:20:40;;;;;;;5.67;3.53;;;-0.20;99.90;;;0.15;100.00;95677.72;5041602;28;20512;-75
2024/01/18 06:23:08;;;;;;;4.93;3.90;;;-0.30;99.90;;;0.16;100.00;95681.09;5039646;28;20472;-75
2024/01/18 06:25:38;;;;;;;9.20;4.20;;;-0.30;99.90;;;0.12;100.00;95679.84;5041397;28;20488;-75
2024/01/18 06:28:10;;;;;;;5.70;3.70;;;-0.40;99.90;;;0.11;100.00;95694.47;5042099;28;20462;-74
2024/01/18 06:30:43;;;;;;;4.30;3.40;;;-0.40;99.90;;;0.05;100.00;95695.19;5042115;28;20479;-76
2024/01/18 06:33:13;;;;;;;5.10;3.90;;;-0.40;99.90;;;-0.07;100.00;95686.38;5041661;28;20547;-76
2024/01/18 06:35:42;;;;;;;5.10;3.70;;;-0.60;99.90;;;-0.10;100.00;95702.91;5039008;28;20888;-76
2024/01/18 06:38:11;;;;;;;3.40;3.10;;;-0.60;99.90;;;-0.22;100.00;95696.66;5040143;28;20494;-76
2024/01/18 06:40:42;;;;;;;6.83;4.17;;;-0.80;99.90;;;-0.26;100.00;95697.97;5042408;28;20464;-76
2024/01/18 06:43:12;;;;;;;7.03;3.50;;;-0.80;99.90;;;-0.24;100.00;95701.16;5042060;28;20457;-76
2024/01/18 06:45:40;;;;;;;4.57;3.30;;;-0.80;99.90;;;-0.23;100.00;95701.94;5043195;28;20951;-76
2024/01/18 06:48:09;;;;;;;8.33;3.63;;;-0.70;99.90;;;-0.15;100.00;95704.44;5042770;28;20459;-77
2024/01/18 06:50:38;;;;;;;5.67;4.30;;;-0.60;99.90;;;-0.19;100.00;95708.34;5040452;28;20465;-77
2024/01/18 06:53:06;;;;;;;6.73;3.67;;;-0.60;99.90;;;-0.25;100.00;95709.03;5042264;28;20481;-77
2024/01/18 06:55:35;;;;;;;5.37;4.17;;;-0.70;99.90;;;-0.22;100.00;95698.41;5039365;28;20458;-77
2024/01/18 06:58:05;;;;;;;6.53;4.00;;;-0.70;99.90;;;-0.26;100.00;95703.13;5039225;28;20499;-77
2024/01/18 07:00:34;;;;;;;4.50;3.00;;;-0.70;99.90;;;-0.23;100.00;95713.03;5040409;28;20472;-77
2024/01/18 07:03:03;;;;;;;7.53;5.10;;;-0.70;99.90;;;-0.32;100.00;95718.44;5041233;28;20514;-77
2024/01/18 07:05:31;;;;;;;10.20;5.37;;;-0.90;99.90;;;-0.34;100.00;95717.78;5040983;28;20471;-77
2024/01/18 07:08:00;;;;;;;6.07;4.27;;;-0.80;99.90;;;-0.36;100.00;95718.00;5042600;28;20468;-77
2024/01/18 07:10:28;;;;;;;7.67;4.77;;;-0.80;99.90;;;-0.37;100.00;95710.44;5045805;28;20461;-77
2024/01/18 07:12:57;;;;;;;10.73;6.27;;;-0.90;99.90;;;-0.33;100.00;95719.41;5043107;28;20879;-77
2024/01/18 07:15:26;;;;;;;7.57;5.10;;;-0.80;99.90;;;-0.35;100.00;95723.94;5044708;28;20471;-76
2024/01/18 07:17:55;;;;;;;6.83;4.93;;;-0.80;99.90;;;-0.51;100.00;95730.00;5044986;28;20917;-77
2024/01/18 07:20:23;;;;;;;7.43;5.13;;;-1.10;99.90;;;-0.44;100.00;95727.53;5045891;28;20499;-77
2024/01/18 07:22:52;;;;;;;5.27;3.77;;;-0.90;99.90;;;-0.49;100.00;95732.41;5044005;28;20476;-77
2024/01/18 07:25:21;;;;;;;9.73;5.10;;;-1.00;99.90;;;-0.49;100.00;95740.09;5042964;28;20474;-76
2024/01/18 07:27:50;;;;;;;7.50;4.90;;;-1.00;99.90;;;-0.49;100.00;95751.19;5044383;28;20466;-76
2024/01/18 07:30:18;;;;;;;8.50;6.07;;;-1.00;99.90;;;-0.48;100.00;95744.25;5043745;28;20505;-76
2024/01/18 07:32:48;;;;;;;8.10;4.77;;;-1.00;99.90;;;-0.48;100.00;95749.38;5044644;28;20944;-76
2024/01/18 07:35:17;;;;;;;6.33;4.47;;;-0.90;99.90;;;-0.46;100.00;95755.16;5043680;28;20966;-77
2024/01/18 07:37:46;;;;;;;7.83;4.27;;;-0.90;99.90;;;-0.54;100.00;95756.81;5042244;28;20466;-75
2024/01/18 07:40:14;;;;;;;7.40;4.50;;;-1.00;99.90;;;-0.64;100.00;95769.09;5043650;28;20555;-76
2024/01/18 07:42:44;;;;;;;6.87;4.53;;;-1.10;99.90;;;-0.61;100.00;95779.03;5043939;28;20469;-76
2024/01/18 07:45:14;;;;;;;5.30;4.23;;;-1.10;99.90;;;-0.66;100.00;95773.59;5043677;28;20493;-76
2024/01/18 07:47:44;;;;;;;8.10;4.40;;;-1.10;99.90;;;-0.58;100.00;95775.31;5044051;28;20461;-75
2024/01/18 07:50:14;;;;;;;6.80;4.07;;;-1.00;99.90;;;-0.57;100.00;95780.28;5042591;28;20594;-76
2024/01/18 07:53:01;;;;;;;6.20;3.90;;;-1.00;99.90;;;-0.61;100.00;95784.16;5042929;28;20556;-76
2024/01/18 07:55:30;;;;;;;8.07;4.40;;;-1.00;99.90;;;-0.58;100.00;95785.56;5041553;28;20991;-75
2024/01/18 07:57:59;;;;;;;6.63;4.00;;;-1.00;99.90;;;-0.59;100.00;95795.03;5041277;28;20462;-76
2024/01/18 08:00:27;;;;;;;8.80;5.20;;;-1.10;99.90;;;-0.63;100.00;95790.44;5042185;28;20980;-74
2024/01/18 08:02:56;;;;;;;7.20;5.00;;;-1.10;99.90;;;-0.63;100.00;95800.69;5041093;28;20461;-76
2024/01/18 08:05:27;;;;;;;6.90;4.67;;;-1.00;99.90;;;-0.63;100.00;95803.25;5044400;28;20462;-76
2024/01/18 08:07:56;;;;;;;10.67;5.17;;;-1.10;99.90;;;-0.68;100.00;95801.22;5043210;28;20959;-75
2024/01/18 08:10:24;;;;;;;8.63;4.37;;;-1.20;99.90;;;-0.66;100.00;95809.53;5040222;28;20575;-76
2024/01/18 08:12:53;;;;;;;7.33;5.23;;;-1.10;99.90;;;-0.71;100.00;95811.00;5042612;28;20460;-75
2024/01/18 08:15:22;;;;;;;8.33;4.80;;;-1.20;99.90;;;-0.66;100.00;95819.78;5045050;28;20516;-76
2024/01/18 08:17:51;;;;;;;8.50;4.80;;;-1.10;99.90;;;-0.72;100.00;95830.75;5045156;28;20549;-76
2024/01/18 08:20:20;;;;;;;8.30;4.70;;;-1.10;99.90;;;-0.69;100.00;95830.38;5042367;28;20852;-76
2024/01/18 08:22:50;;;;;;;7.47;4.10;;;-1.20;99.90;;;-0.68;100.00;95834.56;5043128;28;20458;-76
2024/01/18 08:25:19;;;;;;;6.80;5.10;;;-1.10;99.90;;;-0.75;100.00;95841.34;5045377;28;20461;-76
2024/01/18 08:27:48;;;;;;;8.70;5.30;;;-1.30;99.90;;;-0.79;100.00;95844.41;5045735;28;20468;-76
2024/01/18 08:30:16;;;;;;;8.10;5.80;;;-1.30;99.90;;;-0.74;100.00;95848.09;5044632;28;21053;-75
2024/01/18 08:32:45;;;;;;;6.90;5.30;;;-1.20;99.90;;;-0.75;100.00;95849.03;5042598;28;20465;-76
2024/01/18 08:35:14;;;;;;;7.40;5.10;;;-1.20;99.90;;;-0.72;100.00;95851.25;5041236;28;20468;-75
2024/01/18 08:37:42;;;;;;;6.83;4.87;;;-1.10;99.90;;;-0.76;100.00;95850.00;5043154;28;20906;-75
2024/01/18 08:40:14;;;;;;;9.60;6.67;;;-1.20;99.90;;;-0.76;100.00;95844.88;5044667;28;20501;-76
2024/01/18 08:42:45;;;;;;;8.23;5.47;;;-1.20;99.90;;;-0.79;100.00;95858.03;5043924;28;20523;-76
2024/01/18 08:45:15;;;;;;;12.03;6.40;;;-1.20;99.90;;;-0.77;100.00;95858.69;5041381;28;21045;-75
2024/01/18 08:47:43;;;;;;;7.83;5.53;;;-1.20;99.90;;;-0.76;100.00;95859.47;5042951;28;20500;-75
2024/01/18 08:50:14;;;;;;;7.80;5.87;;;-1.30;99.90;;;-0.69;100.00;95879.13;5042538;28;20461;-75
2024/01/18 08:52:43;;;;;;;7.73;5.43;;;-1.10;99.90;;;-0.71;100.00;95882.84;5042380;28;21072;-75
2024/01/18 08:55:13;;;;;;;8.17;5.40;;;-1.20;99.90;;;-0.69;100.00;95889.41;5043639;28;20479;-76
2024/01/18 08:57:42;;;;;;;7.70;5.30;;;-1.10;99.90;;;-0.61;100.00;95902.19;5041599;28;20461;-76
2024/01/18 09:00:13;;;;;;;7.03;4.83;;;-1.00;99.90;;;-0.57;100.00;95903.44;5041671;28;20502;-76
2024/01/18 09:02:42;;;;;;;10.17;5.20;;;-1.00;99.90;;;-0.58;100.00;95908.72;5041097;28;20476;-76
2024/01/18 09:05:11;;;;;;;6.27;4.80;;;-1.00;99.90;;;-0.57;100.00;95918.03;5044531;28;20473;-76
2024/01/18 09:07:40;;;;;;;6.87;4.93;;;-1.00;99.90;;;-0.55;100.00;95923.78;5045342;28;20539;-76
2024/01/18 09:10:09;;;;;;;9.80;5.20;;;-1.00;99.90;;;-0.49;100.00;95922.31;5040717;28;20905;-76
2024/01/18 09:12:39;;;;;;;7.77;4.97;;;-0.90;99.90;;;-0.43;100.00;95934.47;5044311;28;20459;-76
2024/01/18 09:15:09;;;;;;;8.20;5.67;;;-0.90;99.90;;;-0.45;100.00;95950.03;5042591;28;21013;-76
2024/01/18 09:17:38;;;;;;;7.67;5.03;;;-0.90;99.90;;;-0.39;100.00;95948.56;5041660;28;20516;-76
2024/01/18 09:20:09;;;;;;;7.67;4.77;;;-0.80;99.90;;;-0.42;100.00;95961.72;5042268;28;20510;-76
2024/01/18 09:22:38;;;;;;;8.33;5.57;;;-0.90;99.90;;;-0.41;100.00;95960.75;5043034;28;20467;-76
2024/01/18 09:25:08;;;;;;;7.37;4.60;;;-0.90;99.90;;;-0.45;100.00;95969.78;5042223;28;20893;-76
2024/01/18 09:27:36;;;;;;;9.23;5.90;;;-1.00;99.90;;;-0.38;100.00;95981.75;5045170;28;20540;-75
2024/01/18 09:30:09;;;;;;;9.93;6.47;;;-0.90;99.90;;;-0.36;100.00;95973.88;5042312;28;20469;-76
2024/01/18 09:32:39;;;;;;;14.03;6.47;;;-0.90;99.90;;;-0.30;100.00;95991.16;5044355;28;20461;-75
2024/01/18 09:35:08;;;;;;;10.57;6.67;;;-0.70;99.90;;;-0.26;100.00;95987.28;5044607;28;20469;-76
2024/01/18 09:37:38;;;;;;;9.37;6.20;;;-0.70;99.90;;;-0.19;100.00;95985.63;5042035;28;21058;-76
2024/01/18 09:40:11;;;;;;;12.30;7.63;;;-0.60;99.90;;;-0.24;100.00;95990.47;5039832;28;21083;-75
2024/01/18 09:42:46;;;;;;;8.70;6.37;;;-0.70;99.90;;;-0.24;100.00;96003.31;5040960;28;20462;-76
2024/01/18 09:45:21;;;;;;;9.50;6.73;;;-0.70;99.90;;;-0.25;100.00;96006.88;5039895;28;20464;-75
2024/01/18 09:47:50;;;;;;;11.70;6.70;;;-0.80;99.90;;;-0.23;100.00;96004.91;5042984;28;20457;-75
2024/01/18 09:50:22;;;;;;;10.70;7.23;;;-0.60;99.90;;;-0.25;100.00;96012.81;5041168;28;20519;-76
2024/01/18 09:52:51;;;;;;;12.60;6.50;;;-0.60;99.90;;;-0.24;100.00;96005.88;5040237;28;20470;-75
2024/01/18 09:55:21;;;;;;;12.40;7.40;;;-0.60;99.90;;;-0.25;100.00;96027.41;5041335;28;20468;-76
2024/01/18 09:57:58;;;;;;;10.77;7.00;;;-0.60;99.90;;;-0.21;100.00;96026.09;5041995;28;20475;-76
2024/01/18 10:00:33;;;;;;;11.20;6.40;;;-0.60;99.90;;;-0.14;100.00;96055.28;5042293;28;20576;-75
2024/01/18 10:03:01;;;;;;;13.10;6.90;;;-0.50;99.90;;;-0.11;100.00;96065.19;5042702;28;20465;-76
2024/01/18 10:05:30;;;;;;;12.13;5.83;;;-0.40;99.90;;;-0.13;100.00;96077.38;5042274;28;22562;-75
2024/01/18 10:07:59;;;;;;;15.80;7.33;;;-0.60;99.90;;;-0.04;100.00;96076.38;5041319;28;20478;-75
2024/01/18 10:10:28;;;;;;;8.40;5.17;;;-0.40;99.90;;;-0.01;100.00;96069.16;5039833;28;20717;-76
2024/01/18 10:12:57;;;;;;;10.90;7.17;;;-0.40;99.90;;;0.04;100.00;96075.50;5041012;28;20475;-76
2024/01/18 10:15:35;;;;;;;10.33;6.70;;;-0.40;99.90;;;0.09;100.00;96076.63;5040507;28;20516;-75
2024/01/18 10:18:07;;;;;;;10.73;6.37;;;-0.30;99.90;;;0.12;100.00;96085.75;5041495;28;20462;-75
2024/01/18 10:20:37;;;;;;;9.77;7.13;;;-0.30;99.90;;;0.20;100.00;96071.09;5043250;28;20915;-76
2024/01/18 10:23:05;;;;;;;7.77;5.40;;;-0.20;99.90;;;0.20;100.00;96073.66;5043879;28;20465;-76
2024/01/18 10:25:35;;;;;;;11.40;6.13;;;-0.30;99.90;;;0.25;100.00;96096.25;5040266;28;20468;-76
2024/01/18 10:28:03;;;;;;;8.60;6.00;;;-0.20;99.90;;;0.26;100.00;96095.28;5039810;28;20463;-76